• Join FlightAware (Why Join?)
  • Login
  • US Flag 
07:08AM EDT


 

Airport Tracker/Info


-or-


 

Live Flight TrackerFlight Track Log ✈ N466TC ✈ 04-May-2012 ✈ KPBI - KVNC

Flight Track Log - Related Links

Times and Time Zones

All times are in EDT time to prevent confusion due to time zone crossing. See the N466TC flight status page for this flight to view local times or setup timezone preferences in your user account.

Time Position Orientation Groundspeed Altitude Reporting Facility
EDT Latitude Longitude Course Direction KTS MPH feet Rate Location/Type
06:22PM 26.6859 -80.1124 244° Southwest  Level FlightAware Approximate
06:23PM 26.6923 -80.1512 238° Southwest  Level FlightAware Approximate
06:24PM 26.6986 -80.1899 231° Southwest  Level FlightAware Approximate
06:25PM 26.7049 -80.2287 222° Southwest  Level FlightAware Approximate
06:26PM 26.7112 -80.2675 211° Southwest  Level FlightAware Approximate
06:27PM 26.7175 -80.3063 198° South  Level FlightAware Approximate
06:28PM 26.7238 -80.3450 184° South  Level FlightAware Approximate
06:29PM 26.7301 -80.3838 171° South  Level FlightAware Approximate
06:30PM 26.7363 -80.4226 160° South  Level FlightAware Approximate
06:31PM 26.7426 -80.4614 151° Southeast  Level FlightAware Approximate
06:32PM 26.7488 -80.5003 143° Southeast  Level FlightAware Approximate
06:32PM 26.5772 -80.3572 273° West 130 150 6,000  Level Miami Center
06:33PM 26.5786 -80.3897 276° West 141 162 6,000 -300 Level Miami Center
06:34PM 26.5836 -80.4433 275° West 147 169 5,400 -540 Descending Miami Center
06:35PM 26.5869 -80.4831 275° West 152 175 5,000 -600 Descending Miami Center
06:36PM 26.5917 -80.5436 279° West 165 190 4,300 -540 Descending Miami Center
06:37PM 26.5969 -80.5831 279° West 159 183 4,000 -180 Descending Miami Center
06:38PM 26.6039 -80.6344 280° West 159 183 4,000  Level Miami Center
06:39PM 26.6092 -80.6694 280° West 144 166 4,000  Level Miami Center
06:40PM 26.6164 -80.7139 276° West 139 160 4,000 300 Level Miami Center
06:41PM 26.6197 -80.7467 268° West 130 150 4,600 600 Climbing Miami Center
06:42PM 26.6189 -80.7814 277° West 115 132 5,200 480 Climbing Miami Center
06:43PM 26.6222 -80.8117 297° West 105 121 5,600 420 Climbing Miami Center
06:44PM 26.6339 -80.8375 258° West 96 110 6,100 420 Climbing Miami Center
06:45PM 26.6267 -80.8744 285° West 105 121 6,500 420 Climbing Miami Center
06:46PM 26.6342 -80.9050 268° West 102 117 7,000 420 Climbing Miami Center
06:47PM 26.6333 -80.9375 287° West 107 123 7,400 360 Climbing Miami Center
06:48PM 26.6408 -80.9656 268° West 107 123 7,800 300 Climbing Miami Center
06:49PM 26.6400 -80.9981 275° West 102 117 8,100 120 Climbing Miami Center
06:50PM 26.6431 -81.0353 281° West 120 138 8,100  Level Miami Center
06:51PM 26.6503 -81.0775 289° West 134 154 8,100 -60 Level Miami Center
06:52PM 26.6617 -81.1150 277° West 140 161 8,000 -60 Descending Miami Center
06:53PM 26.6667 -81.1594 276° West 148 170 8,000  Level Miami Center
06:54PM 26.6714 -81.2083 289° West 143 165 8,000 -240 Level Miami Center
07:13PM 26.9167 -82.0000 291° West 151 174 4,100 -240 Descending Tampa TRACON
07:14PM 26.9333 -82.0500 291° West 139 160 4,000  Descending Tampa TRACON
07:15PM 26.9500 -82.1000 299° West 141 162 4,100  Climbing Tampa TRACON
07:16PM 26.9667 -82.1333 291° West 144 166 4,100  Level Tampa TRACON
07:17PM 26.9833 -82.1833 299° West 141 162 4,100 -300 Level Tampa TRACON
07:18PM 27.0000 -82.2167 291° West 146 168 3,600 -540 Descending Tampa TRACON
07:19PM 27.0167 -82.2667 270° West 163 188 3,100 -600 Descending Tampa TRACON
07:20PM 27.0167 -82.3167 270° West 156 180 2,500 -600 Descending Tampa TRACON